Terminal Aerodrome Forecast
Issued by NWS Albany, NY

Home | Current Version | Previous Version | Text Only | Print | Product List | Glossary On
Versions: 1 2 3 4 5 6 7 8 9 10 11 12 13 14 15 16 17 18 19 20 21 22 23 24 25 26 27 28 29 30 31 32 33 34 35 36 37 38 39 40
272
FTUS41 KALY 191133
TAFALB
TAF
KALB 191133Z 1912/2012 33006KT P6SM OVC040
     FM191900 03007KT 4SM -SN OVC040
     FM192100 03007KT 1SM -SN OVC025
     FM200000 04008KT 1/2SM SN OVC015
     FM200200 04011KT 1/4SM +SN OVC007=

USA.gov is the U.S. government's official web portal to all federal, state and local government web resources and services.